sensor_id;sensor_type;location;lat;lon;timestamp;temperature;humidity
68354;DHT22;55274;43.060;25.618;2022-07-22T00:02:15;23.40;59.20
68354;DHT22;55274;43.060;25.618;2022-07-22T00:04:41;23.30;59.20
68354;DHT22;55274;43.060;25.618;2022-07-22T00:07:07;23.30;59.20
68354;DHT22;55274;43.060;25.618;2022-07-22T00:09:33;23.20;59.60
68354;DHT22;55274;43.060;25.618;2022-07-22T00:11:59;23.20;59.60
68354;DHT22;55274;43.060;25.618;2022-07-22T00:14:25;23.10;60.50
68354;DHT22;55274;43.060;25.618;2022-07-22T00:16:50;23.10;60.30
68354;DHT22;55274;43.060;25.618;2022-07-22T00:19:16;23.10;60.00
68354;DHT22;55274;43.060;25.618;2022-07-22T00:21:42;23.10;60.20
68354;DHT22;55274;43.060;25.618;2022-07-22T00:24:08;23.10;60.80
68354;DHT22;55274;43.060;25.618;2022-07-22T00:26:34;23.00;62.00
68354;DHT22;55274;43.060;25.618;2022-07-22T00:29:00;23.00;61.00
68354;DHT22;55274;43.060;25.618;2022-07-22T00:31:26;22.90;61.60
68354;DHT22;55274;43.060;25.618;2022-07-22T00:33:52;22.80;61.60
68354;DHT22;55274;43.060;25.618;2022-07-22T00:36:18;22.80;62.80
68354;DHT22;55274;43.060;25.618;2022-07-22T00:38:44;22.80;62.60
68354;DHT22;55274;43.060;25.618;2022-07-22T00:41:09;22.80;62.50
68354;DHT22;55274;43.060;25.618;2022-07-22T00:43:55;22.90;62.70
68354;DHT22;55274;43.060;25.618;2022-07-22T00:46:23;22.80;62.90
68354;DHT22;55274;43.060;25.618;2022-07-22T00:48:49;22.80;63.20
68354;DHT22;55274;43.060;25.618;2022-07-22T00:51:17;22.80;63.50
68354;DHT22;55274;43.060;25.618;2022-07-22T00:53:44;22.70;63.80
68354;DHT22;55274;43.060;25.618;2022-07-22T00:56:10;22.70;63.60
68354;DHT22;55274;43.060;25.618;2022-07-22T00:58:36;22.70;63.90
68354;DHT22;55274;43.060;25.618;2022-07-22T01:01:03;22.60;64.40
68354;DHT22;55274;43.060;25.618;2022-07-22T01:03:29;22.50;65.40
68354;DHT22;55274;43.060;25.618;2022-07-22T01:05:55;22.40;65.00
68354;DHT22;55274;43.060;25.618;2022-07-22T01:08:21;22.40;65.50
68354;DHT22;55274;43.060;25.618;2022-07-22T01:10:46;22.30;65.80
68354;DHT22;55274;43.060;25.618;2022-07-22T01:13:12;22.30;65.80
68354;DHT22;55274;43.060;25.618;2022-07-22T01:15:38;22.30;65.80
68354;DHT22;55274;43.060;25.618;2022-07-22T01:18:04;22.30;66.00
68354;DHT22;55274;43.060;25.618;2022-07-22T01:20:30;22.10;66.10
68354;DHT22;55274;43.060;25.618;2022-07-22T01:22:56;22.10;66.10
68354;DHT22;55274;43.060;25.618;2022-07-22T01:25:22;22.10;66.30
68354;DHT22;55274;43.060;25.618;2022-07-22T01:27:48;22.10;66.40
68354;DHT22;55274;43.060;25.618;2022-07-22T01:30:14;22.00;66.30
68354;DHT22;55274;43.060;25.618;2022-07-22T01:32:40;22.00;66.60
68354;DHT22;55274;43.060;25.618;2022-07-22T01:35:06;21.90;66.80
68354;DHT22;55274;43.060;25.618;2022-07-22T01:37:35;21.90;66.70
68354;DHT22;55274;43.060;25.618;2022-07-22T01:40:02;21.90;67.00
68354;DHT22;55274;43.060;25.618;2022-07-22T01:42:28;21.80;67.30
68354;DHT22;55274;43.060;25.618;2022-07-22T01:44:54;21.70;68.00
68354;DHT22;55274;43.060;25.618;2022-07-22T01:47:19;21.70;68.30
68354;DHT22;55274;43.060;25.618;2022-07-22T01:49:45;21.60;68.40
68354;DHT22;55274;43.060;25.618;2022-07-22T01:52:11;21.60;68.30
68354;DHT22;55274;43.060;25.618;2022-07-22T01:54:37;21.60;68.50
68354;DHT22;55274;43.060;25.618;2022-07-22T01:57:03;21.60;68.50
68354;DHT22;55274;43.060;25.618;2022-07-22T01:59:28;21.50;68.70
68354;DHT22;55274;43.060;25.618;2022-07-22T02:01:55;21.50;68.30
68354;DHT22;55274;43.060;25.618;2022-07-22T02:04:20;21.40;68.50
68354;DHT22;55274;43.060;25.618;2022-07-22T02:06:46;21.40;68.90
68354;DHT22;55274;43.060;25.618;2022-07-22T02:09:12;21.40;68.80
68354;DHT22;55274;43.060;25.618;2022-07-22T02:11:39;21.30;69.00
68354;DHT22;55274;43.060;25.618;2022-07-22T02:14:04;21.30;69.00
68354;DHT22;55274;43.060;25.618;2022-07-22T02:16:31;21.40;68.20
68354;DHT22;55274;43.060;25.618;2022-07-22T02:18:56;21.30;69.30
68354;DHT22;55274;43.060;25.618;2022-07-22T02:21:22;21.20;69.50
68354;DHT22;55274;43.060;25.618;2022-07-22T02:23:48;21.20;69.60
68354;DHT22;55274;43.060;25.618;2022-07-22T02:26:14;21.20;69.50
68354;DHT22;55274;43.060;25.618;2022-07-22T02:28:40;21.10;69.50
68354;DHT22;55274;43.060;25.618;2022-07-22T02:31:05;21.10;69.90
68354;DHT22;55274;43.060;25.618;2022-07-22T02:33:31;21.10;69.40
68354;DHT22;55274;43.060;25.618;2022-07-22T02:35:57;21.00;69.40
68354;DHT22;55274;43.060;25.618;2022-07-22T02:38:23;21.00;69.90
68354;DHT22;55274;43.060;25.618;2022-07-22T02:40:49;20.90;70.00
68354;DHT22;55274;43.060;25.618;2022-07-22T02:43:15;20.90;69.80
68354;DHT22;55274;43.060;25.618;2022-07-22T02:45:40;20.90;69.80
68354;DHT22;55274;43.060;25.618;2022-07-22T02:48:06;20.80;69.80
68354;DHT22;55274;43.060;25.618;2022-07-22T02:50:32;20.80;69.90
68354;DHT22;55274;43.060;25.618;2022-07-22T02:52:58;20.80;70.20
68354;DHT22;55274;43.060;25.618;2022-07-22T02:55:24;20.80;70.30
68354;DHT22;55274;43.060;25.618;2022-07-22T02:57:50;20.70;70.30
68354;DHT22;55274;43.060;25.618;2022-07-22T03:00:16;20.80;70.40
68354;DHT22;55274;43.060;25.618;2022-07-22T03:02:43;20.70;70.70
68354;DHT22;55274;43.060;25.618;2022-07-22T03:05:09;20.70;70.90
68354;DHT22;55274;43.060;25.618;2022-07-22T03:07:35;20.70;70.90
68354;DHT22;55274;43.060;25.618;2022-07-22T03:10:02;20.60;70.80
68354;DHT22;55274;43.060;25.618;2022-07-22T03:12:28;20.70;71.00
68354;DHT22;55274;43.060;25.618;2022-07-22T03:14:54;20.60;70.90
68354;DHT22;55274;43.060;25.618;2022-07-22T03:17:19;20.60;70.90
68354;DHT22;55274;43.060;25.618;2022-07-22T03:19:45;20.60;70.70
68354;DHT22;55274;43.060;25.618;2022-07-22T03:22:11;20.60;70.90
68354;DHT22;55274;43.060;25.618;2022-07-22T03:24:37;20.60;71.00
68354;DHT22;55274;43.060;25.618;2022-07-22T03:27:03;20.60;70.90
68354;DHT22;55274;43.060;25.618;2022-07-22T03:29:28;20.60;70.90
68354;DHT22;55274;43.060;25.618;2022-07-22T03:31:54;20.60;70.80
68354;DHT22;55274;43.060;25.618;2022-07-22T03:34:20;20.60;71.00
68354;DHT22;55274;43.060;25.618;2022-07-22T03:36:46;20.60;71.20
68354;DHT22;55274;43.060;25.618;2022-07-22T03:39:12;20.60;71.20
68354;DHT22;55274;43.060;25.618;2022-07-22T03:41:37;20.50;71.50
68354;DHT22;55274;43.060;25.618;2022-07-22T03:44:03;20.60;71.50
68354;DHT22;55274;43.060;25.618;2022-07-22T03:46:29;20.60;71.20
68354;DHT22;55274;43.060;25.618;2022-07-22T03:48:55;20.60;70.80
68354;DHT22;55274;43.060;25.618;2022-07-22T03:51:20;20.70;70.90
68354;DHT22;55274;43.060;25.618;2022-07-22T03:53:46;20.80;70.50
68354;DHT22;55274;43.060;25.618;2022-07-22T03:56:12;20.90;70.60
68354;DHT22;55274;43.060;25.618;2022-07-22T03:58:38;20.90;70.70
68354;DHT22;55274;43.060;25.618;2022-07-22T04:01:03;20.90;70.80
68354;DHT22;55274;43.060;25.618;2022-07-22T04:03:29;21.00;70.40
68354;DHT22;55274;43.060;25.618;2022-07-22T04:05:55;21.00;70.40
68354;DHT22;55274;43.060;25.618;2022-07-22T04:08:21;21.00;70.40
68354;DHT22;55274;43.060;25.618;2022-07-22T04:10:46;21.10;70.50
68354;DHT22;55274;43.060;25.618;2022-07-22T04:13:12;21.10;69.90
68354;DHT22;55274;43.060;25.618;2022-07-22T04:15:38;21.10;69.50
68354;DHT22;55274;43.060;25.618;2022-07-22T04:18:04;21.20;69.70
68354;DHT22;55274;43.060;25.618;2022-07-22T04:20:30;21.90;68.00
68354;DHT22;55274;43.060;25.618;2022-07-22T04:22:55;22.70;65.90
68354;DHT22;55274;43.060;25.618;2022-07-22T04:25:21;23.30;63.60
68354;DHT22;55274;43.060;25.618;2022-07-22T04:27:47;24.00;62.10
68354;DHT22;55274;43.060;25.618;2022-07-22T04:30:13;24.70;60.10
68354;DHT22;55274;43.060;25.618;2022-07-22T04:32:38;25.30;57.70
68354;DHT22;55274;43.060;25.618;2022-07-22T04:35:05;25.90;56.20
68354;DHT22;55274;43.060;25.618;2022-07-22T04:37:31;26.60;53.20
68354;DHT22;55274;43.060;25.618;2022-07-22T04:39:56;27.00;52.90
68354;DHT22;55274;43.060;25.618;2022-07-22T04:42:22;27.50;51.60
68354;DHT22;55274;43.060;25.618;2022-07-22T04:44:48;28.00;50.30
68354;DHT22;55274;43.060;25.618;2022-07-22T04:47:14;27.90;49.80
68354;DHT22;55274;43.060;25.618;2022-07-22T04:49:39;27.70;50.10
68354;DHT22;55274;43.060;25.618;2022-07-22T04:52:05;28.00;50.60
68354;DHT22;55274;43.060;25.618;2022-07-22T04:54:31;28.50;49.20
68354;DHT22;55274;43.060;25.618;2022-07-22T04:56:57;29.20;48.20
68354;DHT22;55274;43.060;25.618;2022-07-22T04:59:23;29.10;47.20
68354;DHT22;55274;43.060;25.618;2022-07-22T05:01:48;29.40;47.20
68354;DHT22;55274;43.060;25.618;2022-07-22T05:04:14;30.10;45.30
68354;DHT22;55274;43.060;25.618;2022-07-22T05:06:40;30.10;45.00
68354;DHT22;55274;43.060;25.618;2022-07-22T05:09:07;30.00;44.60
68354;DHT22;55274;43.060;25.618;2022-07-22T05:11:35;30.20;44.80
68354;DHT22;55274;43.060;25.618;2022-07-22T05:14:01;30.70;42.80
68354;DHT22;55274;43.060;25.618;2022-07-22T05:16:26;30.90;42.10
68354;DHT22;55274;43.060;25.618;2022-07-22T05:18:52;31.10;42.20
68354;DHT22;55274;43.060;25.618;2022-07-22T05:21:18;31.90;40.10
68354;DHT22;55274;43.060;25.618;2022-07-22T05:23:44;32.00;40.20
68354;DHT22;55274;43.060;25.618;2022-07-22T05:26:10;32.10;40.00
68354;DHT22;55274;43.060;25.618;2022-07-22T05:28:35;32.30;39.20
68354;DHT22;55274;43.060;25.618;2022-07-22T05:31:01;31.80;39.70
68354;DHT22;55274;43.060;25.618;2022-07-22T05:33:27;31.50;40.40
68354;DHT22;55274;43.060;25.618;2022-07-22T05:35:53;31.50;40.50
68354;DHT22;55274;43.060;25.618;2022-07-22T05:38:19;31.60;40.20
68354;DHT22;55274;43.060;25.618;2022-07-22T05:40:45;32.30;38.80
68354;DHT22;55274;43.060;25.618;2022-07-22T05:43:11;32.00;39.10
68354;DHT22;55274;43.060;25.618;2022-07-22T05:45:36;32.00;40.00
68354;DHT22;55274;43.060;25.618;2022-07-22T05:48:02;32.40;39.00
68354;DHT22;55274;43.060;25.618;2022-07-22T05:50:29;32.10;39.40
68354;DHT22;55274;43.060;25.618;2022-07-22T05:52:57;32.40;39.40
68354;DHT22;55274;43.060;25.618;2022-07-22T05:55:23;32.80;38.10
68354;DHT22;55274;43.060;25.618;2022-07-22T05:57:49;32.60;38.30
68354;DHT22;55274;43.060;25.618;2022-07-22T06:00:15;32.50;39.30
68354;DHT22;55274;43.060;25.618;2022-07-22T06:02:42;32.80;38.20
68354;DHT22;55274;43.060;25.618;2022-07-22T06:05:09;33.00;38.70
68354;DHT22;55274;43.060;25.618;2022-07-22T06:07:35;33.20;37.50
68354;DHT22;55274;43.060;25.618;2022-07-22T06:10:00;33.50;36.50
68354;DHT22;55274;43.060;25.618;2022-07-22T06:12:26;33.50;36.10
68354;DHT22;55274;43.060;25.618;2022-07-22T06:14:52;33.40;36.10
68354;DHT22;55274;43.060;25.618;2022-07-22T06:17:18;33.50;35.90
68354;DHT22;55274;43.060;25.618;2022-07-22T06:19:43;33.60;36.00
68354;DHT22;55274;43.060;25.618;2022-07-22T06:22:09;33.70;35.80
68354;DHT22;55274;43.060;25.618;2022-07-22T06:24:35;33.40;36.00
68354;DHT22;55274;43.060;25.618;2022-07-22T06:27:01;33.50;36.00
68354;DHT22;55274;43.060;25.618;2022-07-22T06:29:27;33.10;35.60
68354;DHT22;55274;43.060;25.618;2022-07-22T06:31:53;33.40;35.30
68354;DHT22;55274;43.060;25.618;2022-07-22T06:34:20;33.40;35.60
68354;DHT22;55274;43.060;25.618;2022-07-22T06:36:46;33.70;35.00
68354;DHT22;55274;43.060;25.618;2022-07-22T06:39:12;33.70;34.90
68354;DHT22;55274;43.060;25.618;2022-07-22T06:41:38;33.90;34.60
68354;DHT22;55274;43.060;25.618;2022-07-22T06:44:04;33.80;33.50
68354;DHT22;55274;43.060;25.618;2022-07-22T06:46:30;33.50;34.50
68354;DHT22;55274;43.060;25.618;2022-07-22T06:48:56;33.90;33.60
68354;DHT22;55274;43.060;25.618;2022-07-22T06:51:21;34.00;34.10
68354;DHT22;55274;43.060;25.618;2022-07-22T06:53:47;34.20;34.60
68354;DHT22;55274;43.060;25.618;2022-07-22T06:56:13;34.30;33.70
68354;DHT22;55274;43.060;25.618;2022-07-22T06:58:39;34.30;33.50
68354;DHT22;55274;43.060;25.618;2022-07-22T07:01:05;34.30;33.60
68354;DHT22;55274;43.060;25.618;2022-07-22T07:03:30;34.60;33.10
68354;DHT22;55274;43.060;25.618;2022-07-22T07:05:56;34.70;33.10
68354;DHT22;55274;43.060;25.618;2022-07-22T07:08:22;34.90;32.90
68354;DHT22;55274;43.060;25.618;2022-07-22T07:10:48;34.70;32.80
68354;DHT22;55274;43.060;25.618;2022-07-22T07:13:14;34.60;33.90
68354;DHT22;55274;43.060;25.618;2022-07-22T07:15:39;34.70;33.00
68354;DHT22;55274;43.060;25.618;2022-07-22T07:18:05;34.80;33.80
68354;DHT22;55274;43.060;25.618;2022-07-22T07:20:31;34.70;32.60
68354;DHT22;55274;43.060;25.618;2022-07-22T07:23:00;34.70;33.20
68354;DHT22;55274;43.060;25.618;2022-07-22T07:25:27;34.50;33.50
68354;DHT22;55274;43.060;25.618;2022-07-22T07:27:53;34.70;32.60
68354;DHT22;55274;43.060;25.618;2022-07-22T07:30:19;34.80;31.00
68354;DHT22;55274;43.060;25.618;2022-07-22T07:32:44;34.80;31.70
68354;DHT22;55274;43.060;25.618;2022-07-22T07:35:10;35.10;32.20
68354;DHT22;55274;43.060;25.618;2022-07-22T07:37:36;35.20;31.80
68354;DHT22;55274;43.060;25.618;2022-07-22T07:40:04;35.40;31.00
68354;DHT22;55274;43.060;25.618;2022-07-22T07:42:30;35.50;31.00
68354;DHT22;55274;43.060;25.618;2022-07-22T07:44:56;35.50;30.50
68354;DHT22;55274;43.060;25.618;2022-07-22T07:47:22;35.50;30.60
68354;DHT22;55274;43.060;25.618;2022-07-22T07:49:49;35.60;30.50
68354;DHT22;55274;43.060;25.618;2022-07-22T07:52:15;35.80;30.40
68354;DHT22;55274;43.060;25.618;2022-07-22T07:54:42;35.80;30.10
68354;DHT22;55274;43.060;25.618;2022-07-22T07:57:11;35.80;30.00
68354;DHT22;55274;43.060;25.618;2022-07-22T07:59:39;35.80;29.90
68354;DHT22;55274;43.060;25.618;2022-07-22T08:02:05;35.80;29.70
68354;DHT22;55274;43.060;25.618;2022-07-22T08:04:34;36.10;29.80
68354;DHT22;55274;43.060;25.618;2022-07-22T08:07:00;36.00;29.70
68354;DHT22;55274;43.060;25.618;2022-07-22T08:09:26;36.30;29.60
68354;DHT22;55274;43.060;25.618;2022-07-22T08:11:52;36.50;28.60
68354;DHT22;55274;43.060;25.618;2022-07-22T08:14:18;36.70;28.10
68354;DHT22;55274;43.060;25.618;2022-07-22T08:16:44;36.60;28.00
68354;DHT22;55274;43.060;25.618;2022-07-22T08:19:10;36.80;28.00
68354;DHT22;55274;43.060;25.618;2022-07-22T08:21:36;36.90;28.00
68354;DHT22;55274;43.060;25.618;2022-07-22T08:24:03;36.90;28.30
68354;DHT22;55274;43.060;25.618;2022-07-22T08:26:31;37.00;28.80
68354;DHT22;55274;43.060;25.618;2022-07-22T08:28:58;36.60;29.40
68354;DHT22;55274;43.060;25.618;2022-07-22T08:31:24;36.70;29.30
68354;DHT22;55274;43.060;25.618;2022-07-22T08:33:49;37.00;29.10
68354;DHT22;55274;43.060;25.618;2022-07-22T08:36:15;37.00;29.00
68354;DHT22;55274;43.060;25.618;2022-07-22T08:38:41;37.30;28.30
68354;DHT22;55274;43.060;25.618;2022-07-22T08:41:07;37.30;28.70
68354;DHT22;55274;43.060;25.618;2022-07-22T08:43:35;37.40;28.00
68354;DHT22;55274;43.060;25.618;2022-07-22T08:46:05;37.10;28.60
68354;DHT22;55274;43.060;25.618;2022-07-22T08:48:31;37.00;29.20
68354;DHT22;55274;43.060;25.618;2022-07-22T08:50:57;37.00;28.60
68354;DHT22;55274;43.060;25.618;2022-07-22T08:53:22;37.40;28.00
68354;DHT22;55274;43.060;25.618;2022-07-22T08:55:48;37.70;27.50
68354;DHT22;55274;43.060;25.618;2022-07-22T08:58:15;37.60;27.40
68354;DHT22;55274;43.060;25.618;2022-07-22T09:00:43;37.90;26.50
68354;DHT22;55274;43.060;25.618;2022-07-22T09:03:21;37.60;27.10
68354;DHT22;55274;43.060;25.618;2022-07-22T09:05:49;37.50;27.20
68354;DHT22;55274;43.060;25.618;2022-07-22T09:08:15;37.30;27.70
68354;DHT22;55274;43.060;25.618;2022-07-22T09:10:41;37.20;27.80
68354;DHT22;55274;43.060;25.618;2022-07-22T09:13:10;36.90;27.60
68354;DHT22;55274;43.060;25.618;2022-07-22T09:15:38;37.50;27.40
68354;DHT22;55274;43.060;25.618;2022-07-22T09:18:07;37.90;26.40
68354;DHT22;55274;43.060;25.618;2022-07-22T09:20:35;38.20;25.60
68354;DHT22;55274;43.060;25.618;2022-07-22T09:23:03;38.40;25.20
68354;DHT22;55274;43.060;25.618;2022-07-22T09:25:36;38.70;24.60
68354;DHT22;55274;43.060;25.618;2022-07-22T09:33:13;38.70;23.80
68354;DHT22;55274;43.060;25.618;2022-07-22T09:35:39;38.80;23.40
68354;DHT22;55274;43.060;25.618;2022-07-22T09:38:08;39.30;23.30
68354;DHT22;55274;43.060;25.618;2022-07-22T09:40:45;39.50;23.00
68354;DHT22;55274;43.060;25.618;2022-07-22T09:43:17;39.80;22.50
68354;DHT22;55274;43.060;25.618;2022-07-22T09:45:48;39.50;21.60
68354;DHT22;55274;43.060;25.618;2022-07-22T09:48:16;39.70;22.00
68354;DHT22;55274;43.060;25.618;2022-07-22T09:50:43;39.90;21.50
68354;DHT22;55274;43.060;25.618;2022-07-22T09:53:10;40.10;21.40
68354;DHT22;55274;43.060;25.618;2022-07-22T09:55:38;40.00;21.20
68354;DHT22;55274;43.060;25.618;2022-07-22T09:58:05;40.20;21.20
68354;DHT22;55274;43.060;25.618;2022-07-22T10:00:35;40.40;19.90
68354;DHT22;55274;43.060;25.618;2022-07-22T10:03:04;40.60;19.10
68354;DHT22;55274;43.060;25.618;2022-07-22T10:05:34;40.50;19.10
68354;DHT22;55274;43.060;25.618;2022-07-22T10:08:01;40.20;19.50
68354;DHT22;55274;43.060;25.618;2022-07-22T10:10:29;40.20;18.60
68354;DHT22;55274;43.060;25.618;2022-07-22T10:12:57;40.40;18.80
68354;DHT22;55274;43.060;25.618;2022-07-22T10:15:24;40.40;18.30
68354;DHT22;55274;43.060;25.618;2022-07-22T10:17:56;40.30;18.10
68354;DHT22;55274;43.060;25.618;2022-07-22T10:20:25;40.30;18.40
68354;DHT22;55274;43.060;25.618;2022-07-22T10:23:02;40.60;17.70
68354;DHT22;55274;43.060;25.618;2022-07-22T10:25:30;40.40;17.90
68354;DHT22;55274;43.060;25.618;2022-07-22T10:28:02;40.00;18.60
68354;DHT22;55274;43.060;25.618;2022-07-22T10:30:34;39.70;18.70
68354;DHT22;55274;43.060;25.618;2022-07-22T10:33:21;39.80;18.50
68354;DHT22;55274;43.060;25.618;2022-07-22T10:35:55;40.00;18.20
68354;DHT22;55274;43.060;25.618;2022-07-22T10:38:22;39.90;17.90
68354;DHT22;55274;43.060;25.618;2022-07-22T10:40:51;40.20;18.20
68354;DHT22;55274;43.060;25.618;2022-07-22T10:43:22;40.50;17.70
68354;DHT22;55274;43.060;25.618;2022-07-22T10:45:54;40.60;17.30
68354;DHT22;55274;43.060;25.618;2022-07-22T10:48:22;40.60;17.00
68354;DHT22;55274;43.060;25.618;2022-07-22T10:50:54;40.60;17.60
68354;DHT22;55274;43.060;25.618;2022-07-22T10:53:25;40.60;17.50
68354;DHT22;55274;43.060;25.618;2022-07-22T10:56:14;40.30;18.30
68354;DHT22;55274;43.060;25.618;2022-07-22T10:58:47;40.30;17.90
68354;DHT22;55274;43.060;25.618;2022-07-22T11:01:16;40.30;18.00
68354;DHT22;55274;43.060;25.618;2022-07-22T11:03:44;40.30;18.30
68354;DHT22;55274;43.060;25.618;2022-07-22T11:06:29;40.30;18.00
68354;DHT22;55274;43.060;25.618;2022-07-22T11:09:02;40.30;18.50
68354;DHT22;55274;43.060;25.618;2022-07-22T11:11:51;40.40;17.70
68354;DHT22;55274;43.060;25.618;2022-07-22T11:14:24;40.60;17.80
68354;DHT22;55274;43.060;25.618;2022-07-22T11:17:04;40.60;16.90
68354;DHT22;55274;43.060;25.618;2022-07-22T11:19:31;40.50;16.30
68354;DHT22;55274;43.060;25.618;2022-07-22T11:22:08;40.70;16.80
68354;DHT22;55274;43.060;25.618;2022-07-22T11:24:35;40.50;16.10
68354;DHT22;55274;43.060;25.618;2022-07-22T11:27:02;40.50;16.70
68354;DHT22;55274;43.060;25.618;2022-07-22T11:29:35;40.60;16.00
68354;DHT22;55274;43.060;25.618;2022-07-22T11:32:03;39.90;15.50
68354;DHT22;55274;43.060;25.618;2022-07-22T11:34:29;39.90;15.60
68354;DHT22;55274;43.060;25.618;2022-07-22T11:36:56;40.00;16.00
68354;DHT22;55274;43.060;25.618;2022-07-22T11:39:26;40.10;17.00
68354;DHT22;55274;43.060;25.618;2022-07-22T11:41:54;39.60;16.20
68354;DHT22;55274;43.060;25.618;2022-07-22T11:44:23;39.90;15.50
68354;DHT22;55274;43.060;25.618;2022-07-22T11:46:50;40.00;15.00
68354;DHT22;55274;43.060;25.618;2022-07-22T11:49:19;40.30;14.80
68354;DHT22;55274;43.060;25.618;2022-07-22T11:51:46;40.00;14.60
68354;DHT22;55274;43.060;25.618;2022-07-22T11:54:12;40.10;15.40
68354;DHT22;55274;43.060;25.618;2022-07-22T11:56:39;40.00;14.80
68354;DHT22;55274;43.060;25.618;2022-07-22T11:59:06;40.10;13.90
68354;DHT22;55274;43.060;25.618;2022-07-22T12:01:35;40.00;13.70
68354;DHT22;55274;43.060;25.618;2022-07-22T12:04:06;39.60;14.40
68354;DHT22;55274;43.060;25.618;2022-07-22T12:06:34;40.00;14.50
68354;DHT22;55274;43.060;25.618;2022-07-22T12:09:13;40.20;14.50
68354;DHT22;55274;43.060;25.618;2022-07-22T12:11:42;40.00;13.90
68354;DHT22;55274;43.060;25.618;2022-07-22T12:14:10;39.60;13.20
68354;DHT22;55274;43.060;25.618;2022-07-22T12:16:37;39.50;13.80
68354;DHT22;55274;43.060;25.618;2022-07-22T12:19:09;39.60;13.00
68354;DHT22;55274;43.060;25.618;2022-07-22T12:21:37;39.50;14.20
68354;DHT22;55274;43.060;25.618;2022-07-22T12:24:14;39.60;14.10
68354;DHT22;55274;43.060;25.618;2022-07-22T12:31:45;39.80;14.00
68354;DHT22;55274;43.060;25.618;2022-07-22T12:34:12;39.80;13.20
68354;DHT22;55274;43.060;25.618;2022-07-22T12:36:38;39.60;13.10
68354;DHT22;55274;43.060;25.618;2022-07-22T12:39:15;39.60;13.80
68354;DHT22;55274;43.060;25.618;2022-07-22T12:41:54;39.50;12.80
68354;DHT22;55274;43.060;25.618;2022-07-22T12:44:25;39.40;13.10
68354;DHT22;55274;43.060;25.618;2022-07-22T12:46:54;39.10;13.40
68354;DHT22;55274;43.060;25.618;2022-07-22T12:49:23;39.00;14.50
68354;DHT22;55274;43.060;25.618;2022-07-22T12:52:12;39.10;13.70
68354;DHT22;55274;43.060;25.618;2022-07-22T12:54:40;39.20;13.80
68354;DHT22;55274;43.060;25.618;2022-07-22T12:57:07;39.10;13.70
68354;DHT22;55274;43.060;25.618;2022-07-22T12:59:35;39.10;14.00
68354;DHT22;55274;43.060;25.618;2022-07-22T13:02:02;39.30;14.40
68354;DHT22;55274;43.060;25.618;2022-07-22T13:04:28;39.20;14.00
68354;DHT22;55274;43.060;25.618;2022-07-22T13:06:54;39.00;14.10
68354;DHT22;55274;43.060;25.618;2022-07-22T13:09:20;39.00;14.20
68354;DHT22;55274;43.060;25.618;2022-07-22T13:11:46;39.00;14.10
68354;DHT22;55274;43.060;25.618;2022-07-22T13:14:13;39.20;14.30
68354;DHT22;55274;43.060;25.618;2022-07-22T13:16:39;39.10;14.00
68354;DHT22;55274;43.060;25.618;2022-07-22T13:19:05;39.10;14.80
68354;DHT22;55274;43.060;25.618;2022-07-22T13:21:31;39.40;14.20
68354;DHT22;55274;43.060;25.618;2022-07-22T13:23:57;39.40;14.10
68354;DHT22;55274;43.060;25.618;2022-07-22T13:26:23;39.30;13.90
68354;DHT22;55274;43.060;25.618;2022-07-22T13:28:50;39.30;14.60
68354;DHT22;55274;43.060;25.618;2022-07-22T13:31:16;39.10;13.80
68354;DHT22;55274;43.060;25.618;2022-07-22T13:33:42;39.30;13.80
68354;DHT22;55274;43.060;25.618;2022-07-22T13:36:07;39.20;13.80
68354;DHT22;55274;43.060;25.618;2022-07-22T13:38:33;39.20;14.00
68354;DHT22;55274;43.060;25.618;2022-07-22T13:40:59;39.10;14.20
68354;DHT22;55274;43.060;25.618;2022-07-22T13:43:25;39.10;14.50
68354;DHT22;55274;43.060;25.618;2022-07-22T13:45:52;38.90;13.80
68354;DHT22;55274;43.060;25.618;2022-07-22T13:48:18;38.60;13.70
68354;DHT22;55274;43.060;25.618;2022-07-22T13:50:46;38.20;14.30
68354;DHT22;55274;43.060;25.618;2022-07-22T13:53:11;37.80;15.20
68354;DHT22;55274;43.060;25.618;2022-07-22T13:55:38;37.60;14.60
68354;DHT22;55274;43.060;25.618;2022-07-22T13:58:04;37.40;14.90
68354;DHT22;55274;43.060;25.618;2022-07-22T14:00:31;37.20;15.30
68354;DHT22;55274;43.060;25.618;2022-07-22T14:02:57;37.10;15.90
68354;DHT22;55274;43.060;25.618;2022-07-22T14:05:23;37.30;15.80
68354;DHT22;55274;43.060;25.618;2022-07-22T14:07:49;37.50;15.50
68354;DHT22;55274;43.060;25.618;2022-07-22T14:10:15;37.60;15.30
68354;DHT22;55274;43.060;25.618;2022-07-22T14:12:41;37.70;15.10
68354;DHT22;55274;43.060;25.618;2022-07-22T14:15:08;37.50;15.00
68354;DHT22;55274;43.060;25.618;2022-07-22T14:17:34;37.50;15.60
68354;DHT22;55274;43.060;25.618;2022-07-22T14:20:00;37.40;15.00
68354;DHT22;55274;43.060;25.618;2022-07-22T14:22:26;37.20;15.20
68354;DHT22;55274;43.060;25.618;2022-07-22T14:24:52;36.90;15.40
68354;DHT22;55274;43.060;25.618;2022-07-22T14:27:18;37.00;15.80
68354;DHT22;55274;43.060;25.618;2022-07-22T14:29:44;37.00;15.60
68354;DHT22;55274;43.060;25.618;2022-07-22T14:32:09;36.90;15.40
68354;DHT22;55274;43.060;25.618;2022-07-22T14:34:35;36.60;15.80
68354;DHT22;55274;43.060;25.618;2022-07-22T14:37:01;36.50;16.20
68354;DHT22;55274;43.060;25.618;2022-07-22T14:39:27;36.40;16.80
68354;DHT22;55274;43.060;25.618;2022-07-22T14:41:52;36.60;16.70
68354;DHT22;55274;43.060;25.618;2022-07-22T14:44:18;36.60;16.20
68354;DHT22;55274;43.060;25.618;2022-07-22T14:46:44;36.60;16.10
68354;DHT22;55274;43.060;25.618;2022-07-22T14:49:10;36.60;16.80
68354;DHT22;55274;43.060;25.618;2022-07-22T14:51:36;36.60;16.30
68354;DHT22;55274;43.060;25.618;2022-07-22T14:54:02;36.60;16.50
68354;DHT22;55274;43.060;25.618;2022-07-22T14:56:27;36.60;16.70
68354;DHT22;55274;43.060;25.618;2022-07-22T14:58:53;36.50;16.30
68354;DHT22;55274;43.060;25.618;2022-07-22T15:01:19;36.40;16.70
68354;DHT22;55274;43.060;25.618;2022-07-22T15:03:45;36.30;16.30
68354;DHT22;55274;43.060;25.618;2022-07-22T15:06:11;36.30;16.10
68354;DHT22;55274;43.060;25.618;2022-07-22T15:08:37;36.30;16.40
68354;DHT22;55274;43.060;25.618;2022-07-22T15:11:03;36.30;16.60
68354;DHT22;55274;43.060;25.618;2022-07-22T15:13:29;36.30;16.00
68354;DHT22;55274;43.060;25.618;2022-07-22T15:15:56;36.10;16.80
68354;DHT22;55274;43.060;25.618;2022-07-22T15:18:22;36.00;16.20
68354;DHT22;55274;43.060;25.618;2022-07-22T15:20:48;36.00;16.50
68354;DHT22;55274;43.060;25.618;2022-07-22T15:23:14;35.80;16.30
68354;DHT22;55274;43.060;25.618;2022-07-22T15:25:40;35.90;16.60